Time,TemperatureF,DewpointF,PressureIn,WindDirection,WindDirectionDegrees,WindSpeedMPH,WindSpeedGustMPH,Humidity,HourlyPrecipIn,Conditions,Clouds,dailyrainin,SoftwareType,DateUTC
2013-02-05 00:03:00,21.2,13.9,29.94,WNW,298,0.0,1.0,73,0.00,,,-99.99,Weather View 32 v70,2013-02-05 05:03:00,
2013-02-05 00:08:00,21.1,13.8,29.95,WNW,298,0.0,1.0,73,0.00,,,-99.99,Weather View 32 v70,2013-02-05 05:08:00,
2013-02-05 00:13:00,21.1,13.8,29.94,WNW,298,0.0,1.0,73,0.00,,,-99.99,Weather View 32 v70,2013-02-05 05:13:00,
2013-02-05 00:23:00,21.0,13.7,29.95,WNW,298,0.0,1.0,73,0.00,,,-99.99,Weather View 32 v70,2013-02-05 05:23:00,
2013-02-05 00:28:00,20.9,13.6,29.94,WNW,298,0.0,1.0,73,0.00,,,-99.99,Weather View 32 v70,2013-02-05 05:28:00,
2013-02-05 00:33:00,20.8,13.5,29.94,WNW,298,0.0,0.0,73,0.00,,,-99.99,Weather View 32 v70,2013-02-05 05:33:00,
2013-02-05 00:38:00,20.9,13.6,29.94,WNW,298,0.0,0.0,73,0.00,,,-99.99,Weather View 32 v70,2013-02-05 05:38:00,
2013-02-05 00:43:00,20.7,13.1,29.93,WNW,298,0.0,1.0,72,0.00,,,-99.99,Weather View 32 v70,2013-02-05 05:43:00,
2013-02-05 00:48:00,20.6,13.0,29.93,WNW,298,0.0,1.0,72,0.00,,,-99.99,Weather View 32 v70,2013-02-05 05:48:00,
2013-02-05 00:58:00,20.4,12.8,29.93,WNW,298,0.0,1.0,72,0.00,,,-99.99,Weather View 32 v70,2013-02-05 05:58:00,
2013-02-05 01:03:00,20.4,12.8,29.93,WNW,298,0.0,1.0,72,0.00,,,-99.99,Weather View 32 v70,2013-02-05 06:03:00,
2013-02-05 01:08:00,20.1,12.5,29.93,WNW,298,0.0,1.0,72,0.00,,,-99.99,Weather View 32 v70,2013-02-05 06:08:00,
2013-02-05 01:13:00,20.0,12.4,29.93,WNW,298,0.0,1.0,72,0.00,,,-99.99,Weather View 32 v70,2013-02-05 06:13:00,
2013-02-05 01:23:00,20.0,12.4,29.93,WNW,298,0.0,1.0,72,0.00,,,-99.99,Weather View 32 v70,2013-02-05 06:23:00,
2013-02-05 01:28:00,19.8,12.2,29.93,WNW,298,0.0,1.0,72,0.00,,,-99.99,Weather View 32 v70,2013-02-05 06:28:00,
2013-02-05 01:38:00,19.9,12.6,29.93,WNW,298,0.0,1.0,73,0.00,,,-99.99,Weather View 32 v70,2013-02-05 06:38:00,
2013-02-05 01:43:00,19.9,12.6,29.93,WNW,298,0.0,1.0,73,0.00,,,-99.99,Weather View 32 v70,2013-02-05 06:43:00,
2013-02-05 01:48:00,19.8,12.2,29.94,WNW,298,0.0,1.0,72,0.00,,,-99.99,Weather View 32 v70,2013-02-05 06:48:00,
2013-02-05 01:53:00,19.8,12.6,29.93,WNW,298,0.0,1.0,73,0.00,,,-99.99,Weather View 32 v70,2013-02-05 06:53:00,
2013-02-05 01:58:00,19.8,12.2,29.94,WNW,298,0.0,0.0,72,0.00,,,-99.99,Weather View 32 v70,2013-02-05 06:58:00,
2013-02-05 02:08:00,19.8,12.2,29.94,WNW,298,0.0,0.0,72,0.00,,,-99.99,Weather View 32 v70,2013-02-05 07:08:00,
2013-02-05 02:13:00,19.8,12.6,29.94,WNW,298,0.0,0.0,73,0.00,,,-99.99,Weather View 32 v70,2013-02-05 07:13:00,
2013-02-05 02:18:00,19.9,12.3,29.94,WNW,298,0.0,0.0,72,0.00,,,-99.99,Weather View 32 v70,2013-02-05 07:18:00,
2013-02-05 02:28:00,19.8,12.2,29.94,WNW,298,0.0,0.0,72,0.00,,,-99.99,Weather View 32 v70,2013-02-05 07:28:00,
2013-02-05 02:33:00,19.7,12.1,29.94,WNW,298,0.0,0.0,72,0.00,,,-99.99,Weather View 32 v70,2013-02-05 07:33:00,
2013-02-05 02:41:00,19.7,12.5,29.94,WNW,298,0.0,0.0,73,0.00,,,-99.99,Weather View 32 v70,2013-02-05 07:41:00,
2013-02-05 02:48:00,19.7,12.1,29.94,WNW,298,0.0,0.0,72,0.00,,,-99.99,Weather View 32 v70,2013-02-05 07:48:00,
2013-02-05 02:53:00,19.7,12.1,29.94,WNW,298,0.0,0.0,72,0.00,,,-99.99,Weather View 32 v70,2013-02-05 07:53:00,
2013-02-05 03:03:00,19.6,12.4,29.94,WNW,298,0.0,0.0,73,0.00,,,-99.99,Weather View 32 v70,2013-02-05 08:03:00,
2013-02-05 03:08:00,19.6,12.4,29.94,WNW,298,0.0,0.0,73,0.00,,,-99.99,Weather View 32 v70,2013-02-05 08:08:00,
2013-02-05 03:13:00,19.6,12.4,29.94,WNW,298,0.0,0.0,73,0.00,,,-99.99,Weather View 32 v70,2013-02-05 08:13:00,
2013-02-05 03:18:00,19.6,12.4,29.93,WNW,298,1.0,1.0,73,0.00,,,-99.99,Weather View 32 v70,2013-02-05 08:18:00,
2013-02-05 03:28:00,19.2,11.7,29.94,WNW,298,0.0,1.0,72,0.00,,,-99.99,Weather View 32 v70,2013-02-05 08:28:00,
2013-02-05 03:33:00,18.8,11.6,29.94,WNW,298,0.0,1.0,73,0.00,,,-99.99,Weather View 32 v70,2013-02-05 08:33:00,
2013-02-05 03:38:00,19.0,11.8,29.94,WNW,298,0.0,1.0,73,0.00,,,-99.99,Weather View 32 v70,2013-02-05 08:38:00,
2013-02-05 03:43:00,19.1,11.9,29.93,WNW,298,0.0,1.0,73,0.00,,,-99.99,Weather View 32 v70,2013-02-05 08:43:00,
2013-02-05 03:48:00,19.1,11.9,29.94,WNW,298,0.0,1.0,73,0.00,,,-99.99,Weather View 32 v70,2013-02-05 08:48:00,
2013-02-05 03:58:00,19.0,11.8,29.93,WNW,298,0.0,1.0,73,0.00,,,-99.99,Weather View 32 v70,2013-02-05 08:58:00,
2013-02-05 04:08:00,18.4,11.2,29.93,WNW,298,0.0,1.0,73,0.00,,,-99.99,Weather View 32 v70,2013-02-05 09:08:00,
2013-02-05 04:13:00,18.5,11.6,29.93,WNW,298,0.0,1.0,74,0.00,,,-99.99,Weather View 32 v70,2013-02-05 09:13:00,
2013-02-05 04:23:00,18.2,11.0,29.93,WNW,298,0.0,1.0,73,0.00,,,-99.99,Weather View 32 v70,2013-02-05 09:23:00,
2013-02-05 04:28:00,18.3,11.1,29.93,WNW,298,0.0,1.0,73,0.00,,,-99.99,Weather View 32 v70,2013-02-05 09:28:00,
2013-02-05 04:33:00,18.2,11.0,29.93,WNW,298,0.0,1.0,73,0.00,,,-99.99,Weather View 32 v70,2013-02-05 09:33:00,
2013-02-05 04:38:00,18.1,10.9,29.94,WNW,298,0.0,1.0,73,0.00,,,-99.99,Weather View 32 v70,2013-02-05 09:38:00,
2013-02-05 04:48:00,18.1,10.9,29.94,WNW,298,0.0,1.0,73,0.00,,,-99.99,Weather View 32 v70,2013-02-05 09:48:00,
2013-02-05 04:53:00,18.0,10.8,29.94,WNW,298,0.0,1.0,73,0.00,,,-99.99,Weather View 32 v70,2013-02-05 09:53:00,
2013-02-05 04:58:00,18.0,10.8,29.94,WNW,298,0.0,1.0,73,0.00,,,-99.99,Weather View 32 v70,2013-02-05 09:58:00,
2013-02-05 05:08:00,18.2,11.0,29.95,WNW,298,0.0,1.0,73,0.00,,,-99.99,Weather View 32 v70,2013-02-05 10:08:00,
2013-02-05 05:13:00,18.1,10.9,29.95,WNW,298,0.0,1.0,73,0.00,,,-99.99,Weather View 32 v70,2013-02-05 10:13:00,
2013-02-05 05:18:00,18.1,10.9,29.95,WNW,298,0.0,1.0,73,0.00,,,-99.99,Weather View 32 v70,2013-02-05 10:18:00,
2013-02-05 05:23:00,18.1,11.2,29.95,WNW,298,0.0,1.0,74,0.00,,,-99.99,Weather View 32 v70,2013-02-05 10:23:00,
2013-02-05 05:33:00,18.3,11.4,29.95,WNW,298,0.0,1.0,74,0.00,,,-99.99,Weather View 32 v70,2013-02-05 10:33:00,
2013-02-05 05:38:00,18.4,11.5,29.95,WNW,298,0.0,1.0,74,0.00,,,-99.99,Weather View 32 v70,2013-02-05 10:38:00,
2013-02-05 05:43:00,18.4,11.5,29.95,WNW,298,0.0,1.0,74,0.00,,,-99.99,Weather View 32 v70,2013-02-05 10:43:00,
2013-02-05 05:48:00,18.4,11.5,29.95,WNW,298,0.0,1.0,74,0.00,,,-99.99,Weather View 32 v70,2013-02-05 10:48:00,
2013-02-05 05:53:00,18.3,11.1,29.95,WNW,298,0.0,1.0,73,0.00,,,-99.99,Weather View 32 v70,2013-02-05 10:53:00,
2013-02-05 06:03:00,18.1,10.9,29.95,WNW,298,0.0,1.0,73,0.00,,,-99.99,Weather View 32 v70,2013-02-05 11:03:00,
2013-02-05 06:08:00,17.8,10.6,29.95,WNW,298,0.0,1.0,73,0.00,,,-99.99,Weather View 32 v70,2013-02-05 11:08:00,
2013-02-05 06:13:00,17.6,10.4,29.95,WNW,298,0.0,1.0,73,0.00,,,-99.99,Weather View 32 v70,2013-02-05 11:13:00,
2013-02-05 06:18:00,17.5,10.6,29.95,WNW,298,0.0,1.0,74,0.00,,,-99.99,Weather View 32 v70,2013-02-05 11:18:00,
2013-02-05 06:28:00,17.0,9.8,29.95,WNW,298,0.0,1.0,73,0.00,,,-99.99,Weather View 32 v70,2013-02-05 11:28:00,
2013-02-05 06:33:00,17.0,10.1,29.95,WNW,298,0.0,1.0,74,0.00,,,-99.99,Weather View 32 v70,2013-02-05 11:33:00,
2013-02-05 06:38:00,17.1,10.2,29.94,WNW,298,0.0,1.0,74,0.00,,,-99.99,Weather View 32 v70,2013-02-05 11:38:00,
2013-02-05 06:43:00,17.0,10.1,29.95,WNW,298,0.0,1.0,74,0.00,,,-99.99,Weather View 32 v70,2013-02-05 11:43:00,
2013-02-05 06:48:00,17.0,10.1,29.95,WNW,298,0.0,1.0,74,0.00,,,-99.99,Weather View 32 v70,2013-02-05 11:48:00,
2013-02-05 06:58:00,16.9,9.8,29.95,WNW,298,0.0,2.0,73,0.00,,,-99.99,Weather View 32 v70,2013-02-05 11:58:00,
2013-02-05 07:03:00,16.9,9.8,29.95,WNW,298,0.0,2.0,73,0.00,,,-99.99,Weather View 32 v70,2013-02-05 12:03:00,
2013-02-05 07:08:00,17.0,9.8,29.95,WNW,298,0.0,2.0,73,0.00,,,-99.99,Weather View 32 v70,2013-02-05 12:08:00,
2013-02-05 07:13:00,17.1,9.9,29.95,WNW,298,0.0,2.0,73,0.00,,,-99.99,Weather View 32 v70,2013-02-05 12:13:00,
2013-02-05 07:23:00,17.3,10.1,29.95,WNW,298,0.0,2.0,73,0.00,,,-99.99,Weather View 32 v70,2013-02-05 12:23:00,
2013-02-05 07:28:00,17.3,10.1,29.95,WNW,298,0.0,2.0,73,0.00,,,-99.99,Weather View 32 v70,2013-02-05 12:28:00,
2013-02-05 07:33:00,17.3,10.1,29.95,WNW,298,0.0,2.0,73,0.00,,,-99.99,Weather View 32 v70,2013-02-05 12:33:00,
2013-02-05 07:38:00,17.4,10.2,29.95,WNW,298,0.0,2.0,73,0.00,,,-99.99,Weather View 32 v70,2013-02-05 12:38:00,
2013-02-05 07:44:00,17.3,9.8,29.95,WNW,298,0.0,2.0,72,0.00,,,-99.99,Weather View 32 v70,2013-02-05 12:44:00,
2013-02-05 07:53:00,16.8,9.7,29.95,WNW,298,0.0,2.0,73,0.00,,,-99.99,Weather View 32 v70,2013-02-05 12:53:00,
2013-02-05 07:58:00,16.9,9.8,29.95,WNW,298,0.0,2.0,73,0.00,,,-99.99,Weather View 32 v70,2013-02-05 12:58:00,
2013-02-05 08:03:00,17.1,10.2,29.95,WNW,298,0.0,1.0,74,0.00,,,-99.99,Weather View 32 v70,2013-02-05 13:03:00,
2013-02-05 08:08:00,17.4,10.5,29.95,WNW,298,0.0,1.0,74,0.00,,,-99.99,Weather View 32 v70,2013-02-05 13:08:00,
2013-02-05 08:18:00,17.8,10.6,29.95,WNW,298,0.0,1.0,73,0.00,,,-99.99,Weather View 32 v70,2013-02-05 13:18:00,
2013-02-05 08:23:00,17.9,10.7,29.95,WNW,298,0.0,1.0,73,0.00,,,-99.99,Weather View 32 v70,2013-02-05 13:23:00,
2013-02-05 08:28:00,18.0,10.8,29.95,WNW,298,0.0,1.0,73,0.00,,,-99.99,Weather View 32 v70,2013-02-05 13:28:00,
2013-02-05 08:38:00,18.4,11.2,29.95,WNW,298,0.0,1.0,73,0.00,,,-99.99,Weather View 32 v70,2013-02-05 13:38:00,
2013-02-05 08:43:00,18.5,11.0,29.95,WNW,298,0.0,1.0,72,0.00,,,-99.99,Weather View 32 v70,2013-02-05 13:43:00,
2013-02-05 08:48:00,18.5,11.0,29.95,WNW,298,1.0,2.0,72,0.00,,,-99.99,Weather View 32 v70,2013-02-05 13:48:00,
2013-02-05 08:53:00,18.4,10.6,29.95,WNW,298,0.0,2.0,71,0.00,,,-99.99,Weather View 32 v70,2013-02-05 13:53:00,
2013-02-05 09:03:00,19.3,11.8,29.95,WNW,298,1.0,2.0,72,0.00,,,-99.99,Weather View 32 v70,2013-02-05 14:03:00,
2013-02-05 09:08:00,19.9,12.0,29.95,WNW,298,0.0,2.0,71,0.00,,,-99.99,Weather View 32 v70,2013-02-05 14:08:00,
2013-02-05 09:13:00,20.0,11.8,29.95,WNW,298,0.0,2.0,70,0.00,,,-99.99,Weather View 32 v70,2013-02-05 14:13:00,
2013-02-05 09:23:00,21.0,12.8,29.95,WNW,298,0.0,2.0,70,0.00,,,-99.99,Weather View 32 v70,2013-02-05 14:23:00,
2013-02-05 09:28:00,21.5,12.6,29.95,WNW,298,1.0,2.0,68,0.00,,,-99.99,Weather View 32 v70,2013-02-05 14:28:00,
2013-02-05 09:33:00,21.8,12.9,29.95,WNW,298,0.0,2.0,68,0.00,,,-99.99,Weather View 32 v70,2013-02-05 14:33:00,
2013-02-05 09:38:00,22.8,13.5,29.95,WNW,298,0.0,2.0,67,0.00,,,-99.99,Weather View 32 v70,2013-02-05 14:38:00,
2013-02-05 09:45:00,23.1,13.4,29.95,WNW,298,0.0,2.0,66,0.00,,,-99.99,Weather View 32 v70,2013-02-05 14:45:00,
2013-02-05 09:53:00,23.5,13.1,29.95,WNW,298,0.0,2.0,64,0.01,,,-99.99,Weather View 32 v70,2013-02-05 14:53:00,
2013-02-05 09:58:00,24.0,13.6,29.95,WNW,298,4.0,4.0,64,0.01,,,-99.99,Weather View 32 v70,2013-02-05 14:58:00,
2013-02-05 10:08:00,24.9,14.1,29.95,East,97,1.0,4.0,63,0.01,,,-99.99,Weather View 32 v70,2013-02-05 15:08:00,
2013-02-05 10:13:00,25.1,13.5,29.95,East,97,2.0,4.0,61,0.01,,,-99.99,Weather View 32 v70,2013-02-05 15:13:00,
2013-02-05 10:18:00,25.1,13.9,29.95,East,97,2.0,4.0,62,0.01,,,-99.99,Weather View 32 v70,2013-02-05 15:18:00,
2013-02-05 10:28:00,25.2,13.6,29.95,East,97,1.0,4.0,61,0.02,,,-99.99,Weather View 32 v70,2013-02-05 15:28:00,
2013-02-05 10:33:00,25.1,13.2,29.95,East,97,1.0,4.0,60,0.02,,,-99.99,Weather View 32 v70,2013-02-05 15:33:00,
2013-02-05 10:38:00,25.0,12.7,29.95,East,97,0.0,4.0,59,0.02,,,-99.99,Weather View 32 v70,2013-02-05 15:38:00,
2013-02-05 10:45:00,25.6,13.6,29.94,East,97,0.0,4.0,60,0.03,,,-99.99,Weather View 32 v70,2013-02-05 15:45:00,
2013-02-05 10:53:00,26.6,13.8,29.94,East,97,0.0,4.0,58,0.02,,,-99.99,Weather View 32 v70,2013-02-05 15:53:00,
2013-02-05 10:58:00,27.0,13.8,29.94,East,97,1.0,4.0,57,0.02,,,-99.99,Weather View 32 v70,2013-02-05 15:58:00,
2013-02-05 11:03:00,27.3,14.1,29.94,East,97,2.0,4.0,57,0.02,,,-99.99,Weather View 32 v70,2013-02-05 16:03:00,
2013-02-05 11:08:00,27.6,13.9,29.94,East,97,2.0,4.0,56,0.02,,,-99.99,Weather View 32 v70,2013-02-05 16:08:00,
2013-02-05 11:18:00,28.1,14.0,29.94,East,97,3.0,4.0,55,0.03,,,-99.99,Weather View 32 v70,2013-02-05 16:18:00,
2013-02-05 11:28:00,27.1,12.7,29.94,NW,317,1.0,5.0,54,0.02,,,-99.99,Weather View 32 v70,2013-02-05 16:28:00,
2013-02-05 11:38:00,28.1,14.0,29.94,WSW,254,1.0,5.0,55,0.02,,,-99.99,Weather View 32 v70,2013-02-05 16:38:00,
2013-02-05 11:43:00,28.8,14.2,29.93,WSW,254,2.0,5.0,54,0.01,,,-99.99,Weather View 32 v70,2013-02-05 16:43:00,
2013-02-05 11:48:00,29.0,14.0,29.93,WSW,254,1.0,5.0,53,0.02,,,-99.99,Weather View 32 v70,2013-02-05 16:48:00,
2013-02-05 11:58:00,27.5,12.6,29.92,NW,309,2.0,5.0,53,0.02,,,-99.99,Weather View 32 v70,2013-02-05 16:58:00,
2013-02-05 12:03:00,28.2,13.7,29.92,SSW,208,1.0,5.0,54,0.02,,,-99.99,Weather View 32 v70,2013-02-05 17:03:00,
2013-02-05 12:13:00,28.0,12.6,29.91,WNW,302,3.0,5.0,52,0.01,,,-99.99,Weather View 32 v70,2013-02-05 17:13:00,
2013-02-05 12:23:00,28.4,12.6,29.91,West,278,2.0,7.0,51,0.01,,,-99.99,Weather View 32 v70,2013-02-05 17:23:00,
2013-02-05 12:28:00,28.3,12.5,29.90,West,266,3.0,7.0,51,0.01,,,-99.99,Weather View 32 v70,2013-02-05 17:28:00,
2013-02-05 12:38:00,28.1,11.8,29.90,WNW,287,2.0,7.0,50,0.01,,,-99.99,Weather View 32 v70,2013-02-05 17:38:00,
2013-02-05 12:43:00,28.3,12.5,29.90,West,274,2.0,7.0,51,0.01,,,-99.99,Weather View 32 v70,2013-02-05 17:43:00,
2013-02-05 12:48:00,28.6,12.3,29.90,West,274,6.0,7.0,50,0.00,,,-99.99,Weather View 32 v70,2013-02-05 17:48:00,
2013-02-05 12:53:00,28.4,13.4,29.90,West,267,2.0,7.0,53,0.00,,,-99.99,Weather View 32 v70,2013-02-05 17:53:00,
2013-02-05 13:03:00,28.7,12.4,29.90,NW,310,1.0,7.0,50,0.00,,,-99.99,Weather View 32 v70,2013-02-05 18:03:00,
2013-02-05 13:08:00,28.9,13.5,29.90,West,272,3.0,7.0,52,0.00,,,-99.99,Weather View 32 v70,2013-02-05 18:08:00,
2013-02-05 13:18:00,29.3,13.8,29.90,WSW,239,3.0,7.0,52,0.00,,,-99.99,Weather View 32 v70,2013-02-05 18:18:00,
2013-02-05 13:23:00,29.1,13.7,29.89,SSW,211,4.0,7.0,52,0.01,,,-99.99,Weather View 32 v70,2013-02-05 18:23:00,
2013-02-05 13:28:00,29.1,13.7,29.89,West,267,3.0,7.0,52,0.01,,,-99.99,Weather View 32 v70,2013-02-05 18:28:00,
2013-02-05 13:38:00,29.3,14.3,29.89,West,264,1.0,7.0,53,0.01,,,-99.99,Weather View 32 v70,2013-02-05 18:38:00,
2013-02-05 13:43:00,29.0,13.6,29.89,West,264,3.0,7.0,52,0.01,,,-99.99,Weather View 32 v70,2013-02-05 18:43:00,
2013-02-05 13:48:00,29.3,13.8,29.89,NW,307,2.0,7.0,52,0.01,,,-99.99,Weather View 32 v70,2013-02-05 18:48:00,
2013-02-05 13:58:00,28.7,13.3,29.88,NW,307,2.0,7.0,52,0.01,,,-99.99,Weather View 32 v70,2013-02-05 18:58:00,
2013-02-05 14:03:00,29.2,14.2,29.88,WNW,300,1.0,7.0,53,0.01,,,-99.99,Weather View 32 v70,2013-02-05 19:03:00,
2013-02-05 14:08:00,29.0,13.1,29.88,WNW,300,2.0,7.0,51,0.01,,,-99.99,Weather View 32 v70,2013-02-05 19:08:00,
2013-02-05 14:18:00,30.3,14.3,29.87,WNW,288,1.0,7.0,51,0.01,,,-99.99,Weather View 32 v70,2013-02-05 19:18:00,
2013-02-05 14:23:00,30.2,13.8,29.87,West,281,1.0,7.0,50,0.00,,,-99.99,Weather View 32 v70,2013-02-05 19:23:00,
2013-02-05 14:28:00,30.0,13.6,29.87,SW,225,3.0,7.0,50,0.00,,,-99.99,Weather View 32 v70,2013-02-05 19:28:00,
2013-02-05 14:38:00,31.0,14.1,29.86,SW,232,3.0,6.0,49,0.00,,,-99.99,Weather View 32 v70,2013-02-05 19:38:00,
2013-02-05 14:43:00,30.9,13.5,29.86,WSW,253,3.0,6.0,48,0.00,,,-99.99,Weather View 32 v70,2013-02-05 19:43:00,
2013-02-05 14:48:00,30.8,13.9,29.86,West,268,2.0,6.0,49,0.00,,,-99.99,Weather View 32 v70,2013-02-05 19:48:00,
2013-02-05 14:53:00,31.1,14.2,29.85,SSE,161,3.0,6.0,49,0.00,,,-99.99,Weather View 32 v70,2013-02-05 19:53:00,
2013-02-05 15:03:00,32.0,14.5,29.85,WSW,247,4.0,6.0,48,0.00,,,-99.99,Weather View 32 v70,2013-02-05 20:03:00,
2013-02-05 15:08:00,31.8,13.8,29.86,SSW,204,2.0,6.0,47,0.00,,,-99.99,Weather View 32 v70,2013-02-05 20:08:00,
2013-02-05 15:13:00,32.1,14.6,29.85,South,173,5.0,6.0,48,0.00,,,-99.99,Weather View 32 v70,2013-02-05 20:13:00,
2013-02-05 15:23:00,32.4,14.9,29.86,South,173,1.0,6.0,48,0.00,,,-99.99,Weather View 32 v70,2013-02-05 20:23:00,
2013-02-05 15:28:00,31.5,13.6,29.86,WNW,283,2.0,6.0,47,0.00,,,-99.99,Weather View 32 v70,2013-02-05 20:28:00,
2013-02-05 15:33:00,31.3,14.3,29.86,South,177,3.0,6.0,49,0.00,,,-99.99,Weather View 32 v70,2013-02-05 20:33:00,
2013-02-05 15:38:00,31.4,14.4,29.86,SW,222,1.0,6.0,49,0.00,,,-99.99,Weather View 32 v70,2013-02-05 20:38:00,
2013-02-05 15:48:00,31.0,13.6,29.87,West,279,2.0,6.0,48,0.00,,,-99.99,Weather View 32 v70,2013-02-05 20:48:00,
2013-02-05 15:53:00,31.0,14.1,29.86,WNW,293,3.0,6.0,49,0.00,,,-99.99,Weather View 32 v70,2013-02-05 20:53:00,
2013-02-05 15:58:00,31.0,14.1,29.86,SW,223,2.0,5.0,49,0.00,,,-99.99,Weather View 32 v70,2013-02-05 20:58:00,
2013-02-05 16:08:00,31.3,14.3,29.86,WSW,244,2.0,7.0,49,0.00,,,-99.99,Weather View 32 v70,2013-02-05 21:08:00,
2013-02-05 16:13:00,31.1,14.6,29.86,SW,218,3.0,7.0,50,0.00,,,-99.99,Weather View 32 v70,2013-02-05 21:13:00,
2013-02-05 16:18:00,30.8,13.9,29.86,WSW,250,2.0,7.0,49,0.00,,,-99.99,Weather View 32 v70,2013-02-05 21:18:00,
2013-02-05 16:28:00,29.9,13.0,29.86,SW,232,4.0,7.0,49,0.00,,,-99.99,Weather View 32 v70,2013-02-05 21:28:00,
2013-02-05 16:33:00,29.5,13.6,29.86,West,276,1.0,7.0,51,0.00,,,-99.99,Weather View 32 v70,2013-02-05 21:33:00,
2013-02-05 16:38:00,29.3,13.4,29.86,West,276,2.0,7.0,51,0.00,,,-99.99,Weather View 32 v70,2013-02-05 21:38:00,
2013-02-05 16:48:00,29.2,13.8,29.86,SW,221,2.0,7.0,52,0.00,,,-99.99,Weather View 32 v70,2013-02-05 21:48:00,
2013-02-05 16:53:00,29.2,14.2,29.86,SW,221,1.0,7.0,53,0.00,,,-99.99,Weather View 32 v70,2013-02-05 21:53:00,
2013-02-05 16:58:00,29.0,14.4,29.86,West,274,3.0,7.0,54,0.00,,,-99.99,Weather View 32 v70,2013-02-05 21:58:00,
2013-02-05 17:08:00,28.7,14.6,29.86,West,270,2.0,6.0,55,0.00,,,-99.99,Weather View 32 v70,2013-02-05 22:08:00,
2013-02-05 17:13:00,28.6,14.5,29.86,West,270,1.0,6.0,55,0.00,,,-99.99,Weather View 32 v70,2013-02-05 22:13:00,
2013-02-05 17:18:00,28.4,14.7,29.87,West,268,1.0,6.0,56,0.00,,,-99.99,Weather View 32 v70,2013-02-05 22:18:00,
2013-02-05 17:23:00,28.0,14.3,29.87,West,279,4.0,6.0,56,0.00,,,-99.99,Weather View 32 v70,2013-02-05 22:23:00,
2013-02-05 17:33:00,27.4,14.2,29.87,WNW,300,3.0,6.0,57,0.00,,,-99.99,Weather View 32 v70,2013-02-05 22:33:00,
2013-02-05 17:38:00,27.2,14.8,29.87,WNW,299,0.0,6.0,59,0.00,,,-99.99,Weather View 32 v70,2013-02-05 22:38:00,
2013-02-05 17:48:00,26.6,14.6,29.88,WNW,301,2.0,6.0,60,0.00,,,-99.99,Weather View 32 v70,2013-02-05 22:48:00,
2013-02-05 17:53:00,26.3,14.7,29.88,WNW,300,3.0,6.0,61,0.00,,,-99.99,Weather View 32 v70,2013-02-05 22:53:00,
2013-02-05 17:58:00,26.3,15.0,29.88,NW,309,3.0,6.0,62,0.00,,,-99.99,Weather View 32 v70,2013-02-05 22:58:00,
2013-02-05 18:08:00,26.4,15.5,29.88,West,266,2.0,9.0,63,0.00,,,-99.99,Weather View 32 v70,2013-02-05 23:08:00,
2013-02-05 18:13:00,26.4,15.5,29.88,WNW,300,1.0,9.0,63,0.00,,,-99.99,Weather View 32 v70,2013-02-05 23:13:00,
2013-02-05 18:18:00,26.7,16.2,29.88,WNW,300,1.0,9.0,64,0.00,,,-99.99,Weather View 32 v70,2013-02-05 23:18:00,
2013-02-05 18:28:00,26.9,16.3,29.88,WSW,251,3.0,9.0,64,0.00,,,-99.99,Weather View 32 v70,2013-02-05 23:28:00,
2013-02-05 18:33:00,26.9,16.3,29.88,WNW,299,1.0,9.0,64,0.00,,,-99.99,Weather View 32 v70,2013-02-05 23:33:00,
2013-02-05 18:38:00,27.0,16.4,29.88,WNW,299,2.0,9.0,64,0.00,,,-99.99,Weather View 32 v70,2013-02-05 23:38:00,
2013-02-05 18:43:00,27.1,16.9,29.88,WNW,299,2.0,9.0,65,0.00,,,-99.99,Weather View 32 v70,2013-02-05 23:43:00,
2013-02-05 18:48:00,27.1,16.9,29.88,WNW,299,0.0,9.0,65,0.00,,,-99.99,Weather View 32 v70,2013-02-05 23:48:00,
2013-02-05 18:58:00,27.2,17.0,29.88,WNW,299,2.0,9.0,65,0.00,,,-99.99,Weather View 32 v70,2013-02-05 23:58:00,
2013-02-05 19:03:00,27.2,17.0,29.88,WNW,299,0.0,6.0,65,0.00,,,-99.99,Weather View 32 v70,2013-02-06 00:03:00,
2013-02-05 19:08:00,27.2,17.0,29.88,WNW,299,1.0,5.0,65,0.00,,,-99.99,Weather View 32 v70,2013-02-06 00:08:00,
2013-02-05 19:18:00,27.0,17.2,29.89,WNW,299,0.0,5.0,66,0.00,,,-99.99,Weather View 32 v70,2013-02-06 00:18:00,
2013-02-05 19:23:00,26.9,17.1,29.89,WNW,299,1.0,5.0,66,0.00,,,-99.99,Weather View 32 v70,2013-02-06 00:23:00,
2013-02-05 19:28:00,27.0,17.2,29.89,WNW,299,2.0,5.0,66,0.00,,,-99.99,Weather View 32 v70,2013-02-06 00:28:00,
2013-02-05 19:38:00,27.1,17.6,29.89,WNW,299,0.0,4.0,67,0.00,,,-99.99,Weather View 32 v70,2013-02-06 00:38:00,
2013-02-05 19:48:00,27.2,17.7,29.89,WNW,299,0.0,4.0,67,0.00,,,-99.99,Weather View 32 v70,2013-02-06 00:48:00,
2013-02-05 19:53:00,27.3,17.8,29.89,WNW,299,1.0,4.0,67,0.00,,,-99.99,Weather View 32 v70,2013-02-06 00:53:00,
2013-02-05 19:58:00,27.3,18.1,29.89,WNW,299,1.0,4.0,68,0.00,,,-99.99,Weather View 32 v70,2013-02-06 00:58:00,
2013-02-05 20:08:00,27.4,18.2,29.89,WNW,299,1.0,4.0,68,0.00,,,-99.99,Weather View 32 v70,2013-02-06 01:08:00,
2013-02-05 20:13:00,27.5,18.3,29.89,WNW,299,0.0,4.0,68,0.00,,,-99.99,Weather View 32 v70,2013-02-06 01:13:00,
2013-02-05 20:18:00,27.5,18.3,29.89,West,271,3.0,8.0,68,0.00,,,-99.99,Weather View 32 v70,2013-02-06 01:18:00,
2013-02-05 20:23:00,27.2,18.4,29.89,WNW,301,1.0,9.0,69,0.00,,,-99.99,Weather View 32 v70,2013-02-06 01:23:00,
2013-02-05 20:33:00,27.1,18.3,29.89,West,266,1.0,9.0,69,0.00,,,-99.99,Weather View 32 v70,2013-02-06 01:33:00,
2013-02-05 20:38:00,27.0,18.2,29.89,West,262,5.0,9.0,69,0.00,,,-99.99,Weather View 32 v70,2013-02-06 01:38:00,
2013-02-05 20:43:00,26.8,18.0,29.89,West,262,2.0,9.0,69,0.00,,,-99.99,Weather View 32 v70,2013-02-06 01:43:00,
2013-02-05 20:48:00,26.8,18.0,29.89,West,266,1.0,9.0,69,0.00,,,-99.99,Weather View 32 v70,2013-02-06 01:48:00,
2013-02-05 20:58:00,26.9,18.4,29.89,SW,233,3.0,9.0,70,0.00,,,-99.99,Weather View 32 v70,2013-02-06 01:58:00,
2013-02-05 21:03:00,26.9,18.4,29.89,SW,219,3.0,9.0,70,0.00,,,-99.99,Weather View 32 v70,2013-02-06 02:03:00,
2013-02-05 21:08:00,26.9,18.1,29.89,SW,230,5.0,9.0,69,0.00,,,-99.99,Weather View 32 v70,2013-02-06 02:08:00,
2013-02-05 21:13:00,27.0,18.5,29.89,SW,223,5.0,9.0,70,0.00,,,-99.99,Weather View 32 v70,2013-02-06 02:13:00,
2013-02-05 21:23:00,27.0,18.5,29.89,WSW,239,6.0,8.0,70,0.00,,,-99.99,Weather View 32 v70,2013-02-06 02:23:00,
2013-02-05 21:28:00,27.0,18.9,29.89,SW,222,3.0,8.0,71,0.00,,,-99.99,Weather View 32 v70,2013-02-06 02:28:00,
2013-02-05 21:38:00,27.0,19.2,29.90,South,180,5.0,8.0,72,0.00,,,-99.99,Weather View 32 v70,2013-02-06 02:38:00,
2013-02-05 21:43:00,27.2,19.4,29.89,South,174,2.0,8.0,72,0.00,,,-99.99,Weather View 32 v70,2013-02-06 02:43:00,
2013-02-05 21:52:00,27.2,19.7,29.89,SSW,209,2.0,8.0,73,0.00,,,-99.99,Weather View 32 v70,2013-02-06 02:52:00,
2013-02-05 21:58:00,27.0,19.5,29.89,South,176,2.0,9.0,73,0.00,,,-99.99,Weather View 32 v70,2013-02-06 02:58:00,
2013-02-05 22:03:00,26.9,19.4,29.89,SSW,204,6.0,9.0,73,0.00,,,-99.99,Weather View 32 v70,2013-02-06 03:03:00,
2013-02-05 22:08:00,26.7,19.2,29.89,SW,216,7.0,12.0,73,0.00,,,-99.99,Weather View 32 v70,2013-02-06 03:08:00,
2013-02-05 22:18:00,26.7,19.2,29.89,SW,222,3.0,12.0,73,0.00,,,-99.99,Weather View 32 v70,2013-02-06 03:18:00,
2013-02-05 22:23:00,26.7,19.2,29.89,SW,220,6.0,12.0,73,0.00,,,-99.99,Weather View 32 v70,2013-02-06 03:23:00,
2013-02-05 22:28:00,26.7,19.2,29.89,SW,230,3.0,12.0,73,0.00,,,-99.99,Weather View 32 v70,2013-02-06 03:28:00,
2013-02-05 22:38:00,26.6,19.4,29.89,SW,218,10.0,12.0,74,0.00,,,-99.99,Weather View 32 v70,2013-02-06 03:38:00,
2013-02-05 22:43:00,26.6,19.1,29.89,SW,231,8.0,12.0,73,0.00,,,-99.99,Weather View 32 v70,2013-02-06 03:43:00,
2013-02-05 22:48:00,26.6,19.1,29.89,SW,221,5.0,14.0,73,0.00,,,-99.99,Weather View 32 v70,2013-02-06 03:48:00,
2013-02-05 22:58:00,26.7,19.2,29.89,SW,229,5.0,14.0,73,0.00,,,-99.99,Weather View 32 v70,2013-02-06 03:58:00,
2013-02-05 23:03:00,26.7,19.2,29.89,SSW,213,5.0,14.0,73,0.00,,,-99.99,Weather View 32 v70,2013-02-06 04:03:00,
2013-02-05 23:08:00,26.8,19.3,29.89,WSW,245,6.0,14.0,73,0.00,,,-99.99,Weather View 32 v70,2013-02-06 04:08:00,
2013-02-05 23:13:00,26.8,19.0,29.89,WSW,254,6.0,14.0,72,0.00,,,-99.99,Weather View 32 v70,2013-02-06 04:13:00,
2013-02-05 23:23:00,26.8,19.3,29.89,WSW,254,3.0,14.0,73,0.00,,,-99.99,Weather View 32 v70,2013-02-06 04:23:00,
2013-02-05 23:28:00,26.8,19.3,29.89,SW,234,6.0,14.0,73,0.00,,,-99.99,Weather View 32 v70,2013-02-06 04:28:00,
2013-02-05 23:33:00,26.8,19.3,29.89,SW,214,5.0,14.0,73,0.00,,,-99.99,Weather View 32 v70,2013-02-06 04:33:00,
2013-02-05 23:38:00,26.9,19.4,29.90,WSW,256,2.0,14.0,73,0.00,,,-99.99,Weather View 32 v70,2013-02-06 04:38:00,
2013-02-05 23:48:00,26.8,19.6,29.89,SW,220,4.0,11.0,74,0.00,,,-99.99,Weather View 32 v70,2013-02-06 04:48:00,
2013-02-05 23:53:00,26.7,19.5,29.90,SW,223,8.0,12.0,74,0.00,,,-99.99,Weather View 32 v70,2013-02-06 04:53:00,